Ana Sayfa
METAR-TAF:

METAR-TAF

Havaalanları :

Manassas Regional Airport (Harry P. Davis Field)

Manassas, Virginia, Amerika Birleşik Devletleri

Enlem: 38-43N, Boylam: 077-31W, yükseklik: 59 m

Güncel hava durumu gözlemi

Rapor saat 07:56 UTC de 41 dakika önce yapıldı.
Sakin rüzgar
Sıcaklık -6°C
Nem 86%
Basınç 1024 hPa
Görüş mesafesi: 16.1 km
Açık gökyüzü

METAR: KHEF 230756Z AUTO 00000KT 10SM CLR M06/M08 A3025 RMK AO2 SLP251 T10611083 FZRANO

Saat: 03:37 (08:37 UTC)


TAF: eksik

4.000'den fazla havaalanı için hava durumu gözlemleri ve tahminleri (METAR ve TAF raporları).

Kullanılabilir istasyonlar harita üzerinde sarı ve kırmızı noktalarla gösterilir.

İstasyonun adını görmek için fareyi noktanın üzerinde gezdirin.

Sonrasında hava gözlem ve tahminlerini görmek için tıklayın.

Haritayı değiştirmek için: yaklaştırmak için siyah artı işaretli yeşil düğmeye ve uzaklaştırmak için de eksi işaretli düğmeye hızla tıklayın; bitişik haritalar için yeşil okları kullanın.


METAR-TAF: